createdAt,value
2023-03-21T00:03:23.767Z,9.18
2023-03-21T00:08:25.249Z,9.16
2023-03-21T00:13:26.570Z,9.16
2023-03-21T00:18:27.884Z,9.12
2023-03-21T00:23:29.122Z,9.13
2023-03-21T00:28:30.359Z,9.13
2023-03-21T00:33:31.600Z,9.12
2023-03-21T00:38:32.839Z,9.10
2023-03-21T00:43:34.086Z,9.09
2023-03-21T00:48:35.715Z,9.09
2023-03-21T00:53:36.937Z,9.10
2023-03-21T00:58:38.189Z,9.11
2023-03-21T01:03:42.742Z,9.12
2023-03-21T01:08:52.274Z,9.12
2023-03-21T01:14:21.403Z,9.12
2023-03-21T01:19:25.135Z,9.12
2023-03-21T01:24:27.683Z,9.13
2023-03-21T01:29:28.900Z,9.11
2023-03-21T01:34:30.152Z,9.12
2023-03-21T01:39:33.668Z,9.13
2023-03-21T01:44:34.830Z,9.13
2023-03-21T01:49:36.040Z,9.14
2023-03-21T01:54:38.010Z,9.14
2023-03-21T01:59:39.208Z,9.11
2023-03-21T02:04:40.465Z,9.10
2023-03-21T02:09:41.879Z,9.10
2023-03-21T02:14:43.041Z,9.11
2023-03-21T02:19:52.764Z,9.09
2023-03-21T02:25:00.384Z,9.08
2023-03-21T02:30:05.548Z,9.09
2023-03-21T02:35:06.733Z,9.09
2023-03-21T02:40:10.907Z,9.09
2023-03-21T02:45:12.161Z,9.08
2023-03-21T02:50:13.356Z,9.07
2023-03-21T02:55:15.491Z,9.02
2023-03-21T03:00:17.890Z,8.99
2023-03-21T03:05:21.327Z,9.02
2023-03-21T03:10:23.175Z,8.99
2023-03-21T03:15:28.452Z,8.98
2023-03-21T03:20:29.655Z,8.96
2023-03-21T03:25:42.166Z,8.95
2023-03-21T03:30:54.280Z,8.95
2023-03-21T03:36:06.943Z,8.94
2023-03-21T03:41:08.766Z,8.87
2023-03-21T03:46:12.100Z,8.63
2023-03-21T03:51:13.383Z,8.43
2023-03-21T03:56:14.527Z,8.29
2023-03-21T04:01:15.910Z,8.23
2023-03-21T04:06:17.266Z,8.23
2023-03-21T04:11:18.439Z,8.26
2023-03-21T04:16:19.634Z,8.37
2023-03-21T04:21:21.929Z,8.50
2023-03-21T04:26:23.173Z,8.56
2023-03-21T04:31:27.156Z,8.62
2023-03-21T04:36:33.206Z,8.65
2023-03-21T04:41:34.446Z,8.67
2023-03-21T04:46:36.202Z,8.69
2023-03-21T04:51:37.401Z,8.74
2023-03-21T04:56:38.605Z,8.72
2023-03-21T05:01:41.058Z,8.73
2023-03-21T05:06:45.128Z,8.71
2023-03-21T05:11:46.299Z,8.71
2023-03-21T05:16:55.512Z,8.72
2023-03-21T05:21:56.792Z,8.74
2023-03-21T05:27:02.059Z,8.77
2023-03-21T05:32:03.236Z,8.80
2023-03-21T05:37:04.401Z,8.83
2023-03-21T05:42:05.781Z,8.86
2023-03-21T05:47:07.089Z,8.88
2023-03-21T05:52:08.224Z,8.90
2023-03-21T05:57:09.413Z,8.93
2023-03-21T06:02:10.955Z,8.95
2023-03-21T06:07:12.106Z,8.44
2023-03-21T06:12:13.295Z,8.90
2023-03-21T06:17:14.433Z,8.89
2023-03-21T06:22:15.773Z,8.91
2023-03-21T06:27:17.152Z,8.93
2023-03-21T06:32:18.343Z,8.96
2023-03-21T06:37:19.531Z,8.98
2023-03-21T06:42:21.011Z,8.99
2023-03-21T06:47:22.174Z,9.01
2023-03-21T06:52:23.447Z,9.03
2023-03-21T06:57:24.677Z,9.07
2023-03-21T07:02:25.912Z,9.10
2023-03-21T07:07:29.037Z,9.15
2023-03-21T07:12:33.938Z,9.21
2023-03-21T07:17:35.577Z,9.31
2023-03-21T07:22:36.799Z,9.40
2023-03-21T07:27:40.649Z,9.48
2023-03-21T07:32:42.102Z,9.51
2023-03-21T07:37:43.315Z,9.48
2023-03-21T07:42:44.558Z,9.45
2023-03-21T07:47:45.999Z,9.50
2023-03-21T07:52:47.227Z,9.53
2023-03-21T07:57:48.440Z,9.56
2023-03-21T08:02:50.309Z,9.59
2023-03-21T08:07:51.578Z,9.60
2023-03-21T08:12:52.765Z,9.53
2023-03-21T08:17:53.993Z,9.52
2023-03-21T08:22:55.307Z,9.52
2023-03-21T08:27:56.521Z,9.48
2023-03-21T08:33:00.688Z,9.48
2023-03-21T08:38:02.653Z,9.54
2023-03-21T08:43:03.874Z,9.60
2023-03-21T08:48:05.294Z,9.51
2023-03-21T08:53:06.451Z,9.56
2023-03-21T08:58:07.712Z,9.54
2023-03-21T09:03:11.592Z,9.59
2023-03-21T09:08:15.748Z,9.62
2023-03-21T09:13:16.967Z,9.64
2023-03-21T09:18:22.032Z,9.65
2023-03-21T09:23:23.349Z,9.77
2023-03-21T09:28:24.926Z,9.83
2023-03-21T09:33:28.642Z,9.90
2023-03-21T09:38:30.590Z,9.92
2023-03-21T09:43:32.366Z,10.16
2023-03-21T09:48:34.975Z,10.37
2023-03-21T09:53:38.906Z,10.43
2023-03-21T09:58:40.385Z,10.43
2023-03-21T10:03:43.789Z,10.36
2023-03-21T10:08:45.026Z,10.28
2023-03-21T10:13:46.228Z,10.28
2023-03-21T10:18:47.525Z,10.28
2023-03-21T10:23:48.748Z,10.28
2023-03-21T10:28:53.159Z,10.18
2023-03-21T10:33:54.882Z,10.23
2023-03-21T10:38:56.066Z,10.18
2023-03-21T10:43:57.266Z,10.25
2023-03-21T10:48:58.469Z,10.44
2023-03-21T10:53:59.771Z,10.54
2023-03-21T10:59:00.964Z,10.50
2023-03-21T11:04:02.169Z,10.63
2023-03-21T11:09:04.028Z,10.77
2023-03-21T11:14:09.175Z,10.72
2023-03-21T11:19:10.930Z,10.63
2023-03-21T11:24:12.138Z,10.62
2023-03-21T11:29:13.297Z,10.63
2023-03-21T11:34:14.647Z,10.71
2023-03-21T11:39:15.918Z,10.89
2023-03-21T11:44:17.063Z,10.98
2023-03-21T11:49:18.294Z,10.98
2023-03-21T11:54:22.310Z,10.90
2023-03-21T11:59:23.487Z,10.84
2023-03-21T12:04:24.812Z,10.78
2023-03-21T12:09:26.125Z,10.67
2023-03-21T12:14:27.345Z,10.59
2023-03-21T12:19:28.554Z,10.52
2023-03-21T12:24:29.729Z,10.56
2023-03-21T12:29:30.892Z,10.45
2023-03-21T12:34:32.422Z,10.42
2023-03-21T12:39:33.779Z,10.39
2023-03-21T12:44:34.996Z,10.36
2023-03-21T12:49:36.236Z,10.28
2023-03-21T12:54:38.640Z,10.59
2023-03-21T12:59:39.790Z,10.75
2023-03-21T13:04:41.497Z,10.78
2023-03-21T13:09:42.718Z,10.93
2023-03-21T13:14:43.909Z,10.98
2023-03-21T13:19:45.146Z,10.97
2023-03-21T13:24:49.371Z,10.98
2023-03-21T13:29:50.671Z,10.97
2023-03-21T13:34:51.927Z,10.94
2023-03-21T13:39:53.195Z,10.92
2023-03-21T13:44:54.346Z,10.92
2023-03-21T13:49:55.604Z,10.92
2023-03-21T13:54:56.841Z,11.18
2023-03-21T13:59:58.039Z,11.19
2023-03-21T14:05:05.295Z,11.31
2023-03-21T14:10:07.477Z,11.33
2023-03-21T14:15:16.361Z,11.37
2023-03-21T14:20:18.050Z,11.48
2023-03-21T14:25:19.274Z,11.54
2023-03-21T14:30:20.706Z,11.65
2023-03-21T14:35:21.869Z,11.76
2023-03-21T14:40:23.081Z,11.73
2023-03-21T14:45:24.321Z,11.75
2023-03-21T14:50:25.574Z,11.70
2023-03-21T14:55:27.294Z,11.74
2023-03-21T15:00:28.597Z,11.72
2023-03-21T15:05:29.764Z,11.83
2023-03-21T15:10:31.676Z,12.04
2023-03-21T15:15:32.947Z,12.18
2023-03-21T15:20:34.188Z,12.27
2023-03-21T15:25:35.374Z,12.33
2023-03-21T15:30:36.652Z,12.36
2023-03-21T15:35:38.733Z,12.42
2023-03-21T15:40:41.041Z,12.29
2023-03-21T15:45:42.515Z,12.13
2023-03-21T15:50:43.673Z,12.18
2023-03-21T15:55:48.278Z,12.42
2023-03-21T16:00:52.126Z,12.67
2023-03-21T16:05:54.706Z,12.80
2023-03-21T16:10:56.066Z,12.67
2023-03-21T16:15:57.245Z,12.52
2023-03-21T16:20:59.345Z,12.31
2023-03-21T16:26:02.975Z,12.15
2023-03-21T16:31:04.160Z,12.05
2023-03-21T16:36:07.495Z,12.05
2023-03-21T16:41:08.684Z,11.98
2023-03-21T16:46:09.871Z,11.99
2023-03-21T16:51:11.334Z,12.01
2023-03-21T16:56:12.575Z,11.77
2023-03-21T17:01:14.293Z,11.62
2023-03-21T17:06:15.618Z,11.59
2023-03-21T17:11:17.114Z,11.60
2023-03-21T17:16:18.353Z,11.61
2023-03-21T17:21:19.544Z,11.60
2023-03-21T17:26:21.107Z,11.58
2023-03-21T17:31:22.352Z,11.54
2023-03-21T17:36:23.596Z,11.49
2023-03-21T17:41:24.878Z,11.45
2023-03-21T17:46:27.166Z,11.43
2023-03-21T17:51:30.290Z,11.40
2023-03-21T17:56:31.585Z,11.37
2023-03-21T18:01:35.225Z,11.33
2023-03-21T18:06:37.446Z,11.27
2023-03-21T18:11:39.092Z,11.20
2023-03-21T18:16:40.261Z,11.14
2023-03-21T18:21:44.873Z,11.09
2023-03-21T18:26:46.428Z,11.01
2023-03-21T18:32:04.558Z,11.00
2023-03-21T18:37:08.009Z,11.02
2023-03-21T18:42:16.753Z,11.01
2023-03-21T18:47:19.058Z,11.03
2023-03-21T18:52:20.774Z,11.05
2023-03-21T18:57:38.668Z,11.07
2023-03-21T19:02:45.542Z,11.04
2023-03-21T19:07:47.978Z,11.05
2023-03-21T19:12:49.346Z,11.00
2023-03-21T19:23:11.911Z,10.98
2023-03-21T19:28:13.099Z,10.99
2023-03-21T19:33:14.308Z,10.97
2023-03-21T19:38:15.767Z,10.96
2023-03-21T19:43:33.565Z,10.94
2023-03-21T19:48:36.418Z,10.94
2023-03-21T19:53:38.289Z,10.91
2023-03-21T19:58:39.502Z,10.90
2023-03-21T20:03:40.777Z,10.87
2023-03-21T20:14:03.491Z,10.84
2023-03-21T20:19:06.211Z,10.87
2023-03-21T20:24:07.490Z,10.88
2023-03-21T20:29:56.319Z,10.86
2023-03-21T20:34:30.607Z,10.83
2023-03-21T20:39:31.886Z,10.82
2023-03-21T20:44:56.884Z,10.73
2023-03-21T20:49:58.425Z,10.45
2023-03-21T20:54:59.611Z,10.25
2023-03-21T21:00:00.742Z,10.17
2023-03-21T21:05:24.642Z,10.05
2023-03-21T21:10:26.233Z,9.94
2023-03-21T21:15:28.103Z,9.91
2023-03-21T21:20:29.368Z,9.97
2023-03-21T21:25:30.624Z,10.00
2023-03-21T21:30:32.457Z,10.05
2023-03-21T21:35:33.804Z,9.94
2023-03-21T21:40:34.993Z,9.77
2023-03-21T21:45:36.726Z,9.59
2023-03-21T21:50:38.238Z,9.44
2023-03-21T21:55:39.569Z,9.34
2023-03-21T22:00:42.671Z,9.30
2023-03-21T22:05:47.677Z,9.33
2023-03-21T22:10:48.842Z,9.34
2023-03-21T22:15:49.973Z,9.36
2023-03-21T22:20:51.095Z,9.33
2023-03-21T22:25:52.407Z,9.33
2023-03-21T22:30:53.557Z,9.29
2023-03-21T22:35:54.735Z,9.26
2023-03-21T22:40:55.944Z,9.27
2023-03-21T22:45:57.142Z,9.32
2023-03-21T22:50:58.405Z,9.36
2023-03-21T22:55:59.584Z,9.42
2023-03-21T23:01:01.039Z,9.44
2023-03-21T23:06:02.210Z,9.48
2023-03-21T23:11:03.335Z,9.56
2023-03-21T23:16:04.517Z,9.61
2023-03-21T23:21:12.964Z,9.63
2023-03-21T23:26:14.188Z,9.63
2023-03-21T23:31:16.627Z,9.67
2023-03-21T23:36:17.929Z,9.67
2023-03-21T23:41:19.217Z,9.67
2023-03-21T23:46:20.520Z,9.68
2023-03-21T23:51:21.753Z,9.67
2023-03-21T23:56:22.927Z,9.69
